Plattsburgh, New York
Current Conditions -  °F | °C
As of 12:53 PM on Thursday 27 Nov 2014 (Local Time) from KPBG Reporting Station
Overcast Overcast  
Wind Chill: 21°   Ceiling: 3100
Heat Index: 28°   Visibility: 10mi
Dew Point: 23°   Wind: 7mph
Humidity: 81%   Direction: 10°N
Pressure: 30.02"   Gusts: NA
Location:  44.7°N, 73.45°W
Report Text: KPBG 271753Z AUTO 01006KT 10SM OVC031 M02/M05 A3002 RMK AO2 SLP169 T10221050 11017 21033 58003
Loading
Personal Weather Stations






























Interactive Weather Map New forecast layout! Learn more

10-Day Weather Forecast

Advertisements
Track Severe Weather on mobile